Station info - map view · info · telemetry · weather · raw · status · beacons · messages · bulletins · browse · moving · my account
Callsign, ship name or locator: Clear       
It is possible to search using wildcards (*?) after a prefix. Example: OH*
APRS station KD7GR-9 - show graphs
Map loading...
Comment: Mobile Command: BattleFord
Mic-E message: Off duty
Location: 36°05.96' N 115°12.78' W - locator DM26JC43KU - show map - static map
3.7 miles West bearing 272° from Paradise, Clark County, Nevada, United States [?]
5.7 miles West bearing 248° from Winchester, Clark County, Nevada, United States
6.7 miles Southwest bearing 219° from Las Vegas, Clark County, Nevada, United States
13.5 miles West bearing 288° from Henderson, Clark County, Nevada, United States
Last position: 2020-12-02 20:59:37 EST (11h52m ago)
2020-12-02 17:59:37 PST local time at Paradise, United States [?]
Altitude: 2241 ft
Course: 271°
Speed: 0 MPH
Device: Yaesu: FTM-400DR (rig)
Last path: KD7GR-9>SVPUYV via N7ZEV-1,WIDE1*,WIDE2-1,qAR,K7STI-10 (good)
Positions stored: 6014
Packet rate: 245 seconds between packets on average during 12023 seconds.
Other SSIDs: KD7GR-N
Stations near current position of KD7GR-9 - show more
callsign distance last heard - EST      callsign distance last heard - EST
N0JLE-90.3 miles 66°2020-11-21 12:29:50 W7HEN-B1.5 miles 135°2020-12-03 08:46:51
W7HEN B1.5 miles 135°2020-12-03 08:47:06 N6YKE-31.5 miles 135°2020-12-03 08:44:21
K7STI B2.6 miles 205°2020-12-03 08:51:32 K7STI-B2.6 miles 205°2020-12-03 08:51:40
K7STI C2.6 miles 205°2020-12-03 08:51:22 K7STI-C2.6 miles 205°2020-12-03 08:51:32
K7STI D2.6 miles 205°2020-12-03 08:38:10 K7STI-D2.6 miles 205°2020-12-03 08:38:20
K7STI-N2.6 miles 205°2020-12-03 08:37:57 K7STI F2.6 miles 205°2020-11-27 00:07:07
K7STI-F2.6 miles 205°2020-11-27 00:07:17 K7STI H2.6 miles 205°2020-11-26 23:08:20
K7STI-H2.6 miles 205°2020-11-26 23:08:30 VEGA$2.7 miles 138°2020-12-03 08:46:53
KP4UZ-102.8 miles 26°2020-11-30 20:56:59 GIGAPARTS2.8 miles 26°2020-12-03 08:34:09
K4GIG-72.8 miles 26°2020-11-21 15:15:30 W7UV-72.9 miles 324°2020-11-19 22:02:47
Stations which heard KD7GR-9 directly on radio –
callsign pkts first heard - EST last heard longest (tx => rx) longest at - EST
KD7GIZ-10 1 2020-12-02 12:11:55 2020-12-02 12:11:55 DN31XD > DN31XF 6.3 miles 343° 2020-12-02 12:11:55
RCHFLD 5 2020-12-02 16:11:47 2020-12-02 16:55:38 DM37NT > DM38XM 66.2 miles 42° 2020-12-02 16:55:38
N7ZEV-3 3 2020-12-02 19:40:33 2020-12-02 20:28:56 DM26US > DM26FH 76.2 miles 246° 2020-12-02 19:40:33
HOLDEN 9 2020-12-02 14:36:47 2020-12-02 15:12:19 DN40CA > DM39WA 71.4 miles 197° 2020-12-02 14:36:47
N7ZEV-1 5 2020-12-02 20:14:55 2020-12-02 20:59:37 DM26NI > DM25GV 45.6 miles 226° 2020-12-02 20:14:55
VEGAS 3 2020-12-02 19:29:39 2020-12-02 20:46:33 DM26XT > DM25FX 98.5 miles 234° 2020-12-02 19:29:39
SHEPRD 3 2020-12-02 10:04:03 2020-12-02 12:29:47 DN31XD > DN41BA 15.1 miles 129° 2020-12-02 10:04:03
KF6RAL-13 16 2020-12-02 17:25:28 2020-12-02 18:27:45 DM37IH > DM36FT 37.3 miles 201° 2020-12-02 17:25:28
AA5QJ-1 1 2020-12-02 20:29:26 2020-12-02 20:29:26 DM26KE > DM26IE 6.4 miles 284° 2020-12-02 20:29:26
WA7FFM-1 32 2020-12-02 12:12:56 2020-12-02 14:56:58 DN31XC > DN40DI 55.5 miles 163° 2020-12-02 12:12:56
AL7BX 8 2020-12-02 16:53:37 2020-12-02 17:08:20 DM37NU > DM37KR 16.0 miles 237° 2020-12-02 16:53:37
KF6RAL-2 9 2020-12-02 12:23:45 2020-12-02 12:57:45 DN40BW > DN30XO 23.9 miles 201° 2020-12-02 12:23:45
FRISCO 14 2020-12-02 15:16:21 2020-12-02 16:15:47 DM39WG > DM38IM 83.4 miles 231° 2020-12-02 15:16:21
WEBER 67 2020-11-30 19:01:04 2020-12-02 12:09:51 DN31XD > DN41AE 7.0 miles 73° 2020-12-02 11:08:18
KB7STN-3 10 2020-12-02 12:33:07 2020-12-02 14:07:27 DN40BS > DN30XL 21.0 miles 197° 2020-12-02 12:33:07
KD7KCN-5 1 2020-12-02 18:15:23 2020-12-02 18:15:23 DM37FD > DM27VJ 40.1 miles 297° 2020-12-02 18:15:23
KF6RAL-1 6 2020-12-02 12:21:45 2020-12-02 14:33:59 DN40BX > DN40AG 48.9 miles 182° 2020-12-02 12:21:45
N7BYU-1 2 2020-12-02 14:31:59 2020-12-02 14:38:47 DM49CX > DN40EF 19.3 miles 19° 2020-12-02 14:38:47
KO0OOO 4 2020-12-02 19:58:56 2020-12-02 20:30:26 DM26QN > DM26JF 38.3 miles 231° 2020-12-02 19:58:56
N6DTO-13 3 2020-12-02 17:10:20 2020-12-02 17:14:20 DM37JN > DM37KP 8.6 miles 30° 2020-12-02 17:14:20
K7STI-10 3 2020-12-02 20:16:55 2020-12-02 20:42:27 DM26MH > DM25IX 29.6 miles 220° 2020-12-02 20:16:55
KR1P-10 3 2020-12-02 12:16:56 2020-12-02 12:25:47 DN40BV > DN41AB 11.1 miles 336° 2020-12-02 12:25:47
N7ZEV-4 4 2020-12-02 18:47:32 2020-12-02 19:13:36 DM26XT > DM26XU 2.5 miles 279° 2020-12-02 18:47:32
PHILL 1 2020-12-01 20:16:20 2020-12-01 20:16:20 DN31XD > DN42CC 66.5 miles 10° 2020-12-01 20:16:20
KJ7OWD-1 2 2020-12-02 20:20:55 2020-12-02 20:22:55 DM26LG > DM26IH 15.5 miles 274° 2020-12-02 20:20:55
BLOW 12 2020-12-02 16:26:56 2020-12-02 18:27:14 DM36EX > DM37NO 58.7 miles 45° 2020-12-02 18:27:14
WR7NV-1 10 2020-12-02 18:14:04 2020-12-02 19:46:34 DM26SR > DM37CB 41.4 miles 57° 2020-12-02 19:46:34

Only position packets which were originated by the station are shown here. The range statistics show some extra long hops, because some digipeaters do not correctly add themselves to the digipeater path. Please check the raw packets.
About this site
This page shows real-time information collected from the Automatic Position Reporting System Internet network (APRS-IS). APRS is used by amateur (ham) radio operators to transmit real-time position information, weather data, telemetry and messages over the radio. A vehicle equipped with a GPS receiver, a VHF transmitter or HF transceiver and a small computer device called a tracker transmits it's location, speed and course in a small data packet, which is then received by a nearby iGate receiving site which forwards the packet on the Internet. Systems connected to the Internet can send information on the APRS-IS without a radio transmitter, or collect and display information transmitted anywhere in the world.
User guide · FAQ · Blog · Discussion group · Linking to aprs.fi · AIS sites · Service status · Database statistics · Advertising on aprs.fi · Technical details · API · Change log · Planned changes · Credits and thanks · Terms Of Service · iPhone/iPad APRS